createdAt,value
2023-01-21T00:01:35.880Z,5.09
2023-01-21T00:06:29.052Z,5.47
2023-01-21T00:11:24.491Z,5.11
2023-01-21T00:16:19.073Z,5.42
2023-01-21T00:21:12.453Z,4.84
2023-01-21T00:26:07.557Z,4.89
2023-01-21T00:31:02.395Z,4.95
2023-01-21T00:36:01.633Z,5.09
2023-01-21T00:41:00.097Z,5.27
2023-01-21T00:45:53.377Z,4.53
2023-01-21T00:50:46.601Z,4.77
2023-01-21T00:55:41.347Z,5.16
2023-01-21T01:00:34.653Z,4.36
2023-01-21T01:05:27.930Z,5.15
2023-01-21T01:10:21.186Z,4.75
2023-01-21T01:15:15.894Z,4.76
2023-01-21T01:20:10.424Z,4.76
2023-01-21T01:25:03.530Z,4.96
2023-01-21T01:29:56.687Z,4.25
2023-01-21T01:34:51.240Z,4.88
2023-01-21T01:39:44.565Z,4.61
2023-01-21T01:44:59.617Z,4.82
2023-01-21T01:49:54.569Z,4.52
2023-01-21T01:54:53.823Z,4.76
2023-01-21T01:59:51.466Z,4.08
2023-01-21T02:04:49.256Z,4.42
2023-01-21T02:09:43.949Z,4.29
2023-01-21T02:14:42.993Z,4.51
2023-01-21T02:20:10.962Z,4.33
2023-01-21T02:25:52.694Z,4.86
2023-01-21T02:31:07.343Z,4.52
2023-01-21T02:36:11.983Z,4.79
2023-01-21T02:41:12.867Z,4.49
2023-01-21T02:46:14.749Z,4.14
2023-01-21T02:51:09.557Z,4.81
2023-01-21T02:56:07.431Z,4.50
2023-01-21T03:01:12.704Z,4.77
2023-01-21T03:06:41.395Z,4.75
2023-01-21T03:11:34.968Z,4.38
2023-01-21T03:16:54.339Z,4.38
2023-01-21T03:21:52.689Z,4.66
2023-01-21T03:26:49.199Z,4.46
2023-01-21T03:31:47.887Z,3.72
2023-01-21T03:36:46.278Z,3.57
2023-01-21T03:41:41.662Z,3.71
2023-01-21T03:46:48.562Z,4.02
2023-01-21T03:51:46.495Z,4.40
2023-01-21T03:56:41.240Z,4.36
2023-01-21T04:01:34.426Z,4.01
2023-01-21T04:06:30.649Z,3.79
2023-01-21T04:11:24.643Z,4.27
2023-01-21T04:16:19.288Z,4.32
2023-01-21T04:21:12.527Z,3.84
2023-01-21T04:26:05.844Z,4.43
2023-01-21T04:30:59.211Z,4.24
2023-01-21T04:35:58.333Z,4.36
2023-01-21T04:40:51.497Z,3.39
2023-01-21T04:45:44.793Z,4.29
2023-01-21T04:50:38.917Z,4.27
2023-01-21T04:55:33.751Z,3.43
2023-01-21T05:00:27.431Z,3.72
2023-01-21T05:05:23.687Z,2.88
2023-01-21T05:10:17.999Z,3.13
2023-01-21T05:15:27.229Z,3.45
2023-01-21T05:20:20.913Z,3.80
2023-01-21T05:25:17.696Z,4.09
2023-01-21T05:30:14.851Z,3.95
2023-01-21T05:35:20.558Z,2.82
2023-01-21T05:40:18.118Z,3.23
2023-01-21T05:45:13.815Z,4.15
2023-01-21T05:50:09.194Z,3.45
2023-01-21T05:55:04.872Z,2.85
2023-01-21T06:00:02.522Z,2.98
2023-01-21T06:05:01.561Z,3.57
2023-01-21T06:09:55.177Z,3.84
2023-01-21T06:14:50.521Z,3.57
2023-01-21T06:19:53.021Z,3.76
2023-01-21T06:25:10.087Z,3.31
2023-01-21T06:30:11.002Z,3.88
2023-01-21T06:35:09.201Z,4.41
2023-01-21T06:40:03.035Z,4.72
2023-01-21T06:44:58.037Z,4.77
2023-01-21T06:49:51.481Z,4.14
2023-01-21T06:54:45.006Z,3.86
2023-01-21T06:59:40.197Z,3.46
2023-01-21T07:04:36.973Z,3.32
2023-01-21T07:09:38.283Z,3.34
2023-01-21T07:14:33.889Z,4.87
2023-01-21T07:19:29.314Z,5.08
2023-01-21T07:24:27.707Z,3.94
2023-01-21T07:29:23.420Z,4.09
2023-01-21T07:34:17.028Z,4.45
2023-01-21T07:39:15.469Z,5.26
2023-01-21T07:44:10.676Z,4.71
2023-01-21T07:49:04.718Z,4.74
2023-01-21T07:53:58.615Z,5.90
2023-01-21T07:58:55.068Z,6.28
2023-01-21T08:03:54.838Z,6.27
2023-01-21T08:08:48.053Z,6.15
2023-01-21T08:13:41.360Z,6.64
2023-01-21T08:18:34.742Z,7.08
2023-01-21T08:23:29.349Z,6.81
2023-01-21T08:28:25.278Z,7.53
2023-01-21T08:33:18.640Z,7.56
2023-01-21T08:38:11.872Z,7.83
2023-01-21T08:43:07.969Z,6.87
2023-01-21T08:48:03.720Z,7.10
2023-01-21T08:52:57.953Z,8.11
2023-01-21T08:57:55.852Z,8.34
2023-01-21T09:02:51.750Z,8.49
2023-01-21T09:07:45.660Z,8.73
2023-01-21T09:12:39.030Z,8.76
2023-01-21T09:17:32.460Z,9.29
2023-01-21T09:22:28.313Z,10.26
2023-01-21T09:27:31.253Z,11.79
2023-01-21T09:32:24.640Z,13.18
2023-01-21T09:37:40.698Z,12.43
2023-01-21T09:48:38.056Z,12.14
2023-01-21T09:53:48.670Z,11.86
2023-01-21T09:59:11.585Z,11.49
2023-01-21T10:04:28.325Z,10.61
2023-01-21T10:10:15.674Z,10.03
2023-01-21T10:15:41.460Z,10.30
2023-01-21T10:20:50.923Z,10.64
2023-01-21T10:26:40.558Z,10.80
2023-01-21T10:38:03.911Z,10.23
2023-01-21T10:49:43.025Z,10.80
2023-01-21T10:55:21.490Z,11.88
2023-01-21T11:00:32.026Z,11.71
2023-01-21T11:05:50.997Z,12.66
2023-01-21T11:11:34.020Z,13.50
2023-01-21T11:17:40.869Z,13.85
2023-01-21T11:23:14.612Z,12.89
2023-01-21T11:34:17.548Z,14.66
2023-01-21T11:57:55.715Z,13.56
2023-01-21T12:10:39.264Z,11.44
2023-01-21T12:22:15.239Z,11.78
2023-01-21T12:34:21.707Z,11.98
2023-01-21T12:40:29.176Z,12.88
2023-01-21T12:46:43.539Z,13.23
2023-01-21T12:52:51.899Z,13.24
2023-01-21T13:05:31.475Z,11.87
2023-01-21T13:11:15.164Z,12.00
2023-01-21T13:16:45.856Z,13.34
2023-01-21T13:29:14.619Z,13.04
2023-01-21T15:16:24.164Z,13.08
2023-01-21T15:22:30.235Z,13.95
2023-01-21T15:27:51.996Z,13.93
2023-01-21T15:33:22.593Z,13.70
2023-01-21T15:44:55.152Z,13.07
2023-01-21T15:50:53.266Z,14.02
2023-01-21T16:21:35.375Z,14.04
2023-01-21T16:39:51.476Z,12.36
2023-01-21T16:46:27.511Z,12.33
2023-01-21T16:52:06.300Z,12.65
2023-01-21T16:58:13.023Z,12.20
2023-01-21T17:10:39.839Z,12.13
2023-01-21T17:15:45.904Z,12.41
2023-01-21T17:21:42.791Z,12.25
2023-01-21T18:07:20.920Z,12.54
2023-01-21T18:13:55.129Z,12.53
2023-01-21T18:32:48.793Z,11.29
2023-01-21T19:46:28.975Z,10.97
2023-01-21T19:52:27.951Z,11.76
2023-01-21T19:57:36.273Z,11.96
2023-01-21T20:02:46.305Z,10.79
2023-01-21T20:07:52.285Z,11.10
2023-01-21T20:46:52.853Z,12.74
2023-01-21T20:52:24.030Z,13.11
2023-01-21T20:57:28.759Z,12.24
2023-01-21T21:26:07.455Z,13.25
2023-01-21T21:37:51.189Z,14.20
2023-01-21T21:51:13.152Z,14.33
2023-01-21T21:56:25.698Z,13.49
2023-01-21T22:08:10.998Z,14.05
2023-01-21T22:13:14.163Z,13.84
2023-01-21T22:24:16.098Z,13.02
2023-01-21T22:41:11.977Z,13.47
2023-01-21T22:47:05.247Z,13.54
2023-01-21T22:52:14.142Z,13.36
2023-01-21T22:57:18.020Z,13.89
2023-01-21T23:14:15.978Z,12.90
2023-01-21T23:21:01.754Z,13.96
2023-01-21T23:26:15.981Z,12.53
2023-01-21T23:32:04.814Z,12.98
2023-01-21T23:44:35.807Z,12.97
2023-01-21T23:50:21.561Z,12.80
2023-01-21T23:56:23.852Z,13.79
